createdAt,value
2023-03-02T00:02:22.682Z,38.30
2023-03-02T00:04:56.858Z,38.70
2023-03-02T00:07:35.396Z,40.50
2023-03-02T00:10:07.685Z,40.60
2023-03-02T00:12:41.288Z,38.60
2023-03-02T00:15:12.210Z,41.10
2023-03-02T00:17:43.092Z,41.60
2023-03-02T00:20:14.314Z,40.70
2023-03-02T00:22:46.175Z,38.50
2023-03-02T00:25:18.170Z,39.50
2023-03-02T00:27:49.188Z,37.50
2023-03-02T00:30:20.349Z,39.90
2023-03-02T00:33:13.150Z,41.90
2023-03-02T00:35:44.230Z,37.60
2023-03-02T00:38:16.096Z,39.70
2023-03-02T00:40:49.485Z,43.40
2023-03-02T00:43:23.009Z,41.70
2023-03-02T00:45:55.492Z,40.70
2023-03-02T00:48:26.485Z,42.00
2023-03-02T00:51:00.505Z,43.60
2023-03-02T00:53:32.630Z,39.40
2023-03-02T00:56:05.222Z,43.60
2023-03-02T00:58:37.331Z,43.30
2023-03-02T01:01:11.342Z,40.00
2023-03-02T01:03:45.169Z,41.90
2023-03-02T01:06:21.932Z,46.10
2023-03-02T01:08:52.861Z,40.40
2023-03-02T01:11:23.815Z,42.10
2023-03-02T01:13:55.812Z,41.10
2023-03-02T01:16:27.068Z,39.20
2023-03-02T01:18:57.928Z,41.00
2023-03-02T01:21:29.201Z,40.10
2023-03-02T01:24:00.348Z,42.40
2023-03-02T01:26:31.451Z,42.40
2023-03-02T01:29:03.623Z,41.70
2023-03-02T01:31:34.463Z,43.80
2023-03-02T01:34:05.971Z,43.40
2023-03-02T01:36:37.301Z,43.80
2023-03-02T01:39:08.484Z,44.30
2023-03-02T01:41:39.363Z,42.60
2023-03-02T01:44:59.590Z,45.50
2023-03-02T01:47:35.526Z,42.80
2023-03-02T01:52:54.909Z,45.80
2023-03-02T01:55:31.875Z,45.60
2023-03-02T01:58:04.610Z,41.30
2023-03-02T02:00:38.574Z,45.80
2023-03-02T02:03:15.408Z,43.90
2023-03-02T02:05:53.038Z,45.10
2023-03-02T02:08:46.660Z,44.40
2023-03-02T02:11:17.642Z,42.20
2023-03-02T02:13:49.992Z,43.80
2023-03-02T02:16:21.613Z,45.10
2023-03-02T02:18:52.958Z,48.00
2023-03-02T02:21:25.874Z,41.00
2023-03-02T02:24:24.049Z,45.20
2023-03-02T02:26:57.368Z,42.20
2023-03-02T02:29:33.354Z,49.50
2023-03-02T02:32:31.139Z,44.20
2023-03-02T02:35:21.943Z,46.30
2023-03-02T02:38:16.476Z,45.40
2023-03-02T02:41:03.773Z,47.00
2023-03-02T02:43:36.621Z,44.60
2023-03-02T02:46:07.539Z,45.50
2023-03-02T02:48:39.533Z,45.90
2023-03-02T02:51:18.399Z,43.90
2023-03-02T02:54:00.044Z,44.80
2023-03-02T02:56:38.445Z,46.40
2023-03-02T02:59:29.657Z,44.70
2023-03-02T03:02:03.324Z,45.60
2023-03-02T03:04:34.525Z,46.00
2023-03-02T03:07:07.036Z,43.60
2023-03-02T03:09:36.907Z,38.90
2023-03-02T03:12:16.177Z,38.80
2023-03-02T03:14:48.208Z,36.30
2023-03-02T03:17:19.542Z,41.90
2023-03-02T03:20:03.550Z,38.20
2023-03-02T03:22:36.169Z,36.30
2023-03-02T03:25:08.096Z,38.90
2023-03-02T03:27:39.777Z,38.30
2023-03-02T03:30:13.078Z,43.00
2023-03-02T03:32:44.933Z,43.00
2023-03-02T03:35:17.913Z,41.00
2023-03-02T03:37:49.790Z,41.60
2023-03-02T03:40:21.135Z,40.70
2023-03-02T03:42:50.838Z,39.20
2023-03-02T03:45:21.985Z,40.70
2023-03-02T03:47:53.303Z,44.40
2023-03-02T03:50:24.840Z,41.40
2023-03-02T03:52:56.016Z,41.30
2023-03-02T03:55:30.751Z,46.20
2023-03-02T03:58:01.725Z,42.60
2023-03-02T04:00:32.263Z,46.30
2023-03-02T04:03:07.014Z,47.80
2023-03-02T04:05:38.345Z,44.60
2023-03-02T04:08:10.100Z,45.10
2023-03-02T04:10:41.759Z,50.20
2023-03-02T04:13:13.338Z,43.70
2023-03-02T04:16:06.168Z,46.60
2023-03-02T04:18:37.427Z,46.40
2023-03-02T04:21:08.735Z,49.70
2023-03-02T04:23:40.538Z,45.60
2023-03-02T04:26:11.718Z,44.80
2023-03-02T04:29:06.181Z,45.60
2023-03-02T04:31:38.742Z,42.80
2023-03-02T04:34:11.014Z,45.90
2023-03-02T04:36:45.041Z,42.90
2023-03-02T04:39:19.905Z,39.90
2023-03-02T04:41:55.651Z,31.00
2023-03-02T04:44:26.887Z,33.50
2023-03-02T04:46:56.690Z,29.10
2023-03-02T04:49:27.695Z,30.40
2023-03-02T04:51:58.614Z,27.60
2023-03-02T04:54:29.578Z,26.50
2023-03-02T04:57:00.799Z,29.30
2023-03-02T04:59:30.400Z,27.40
2023-03-02T05:02:02.292Z,28.20
2023-03-02T05:04:33.721Z,28.50
2023-03-02T05:07:08.815Z,29.40
2023-03-02T05:09:39.672Z,25.90
2023-03-02T05:12:11.062Z,23.30
2023-03-02T05:14:43.418Z,20.70
2023-03-02T05:17:15.393Z,20.70
2023-03-02T05:19:46.557Z,22.80
2023-03-02T05:22:17.823Z,20.70
2023-03-02T05:24:48.919Z,26.50
2023-03-02T05:27:19.841Z,24.50
2023-03-02T05:29:51.679Z,24.90
2023-03-02T05:32:23.125Z,25.30
2023-03-02T05:34:54.047Z,24.10
2023-03-02T05:37:25.200Z,22.20
2023-03-02T05:39:56.660Z,26.20
2023-03-02T05:42:26.280Z,24.80
2023-03-02T05:44:57.301Z,25.50
2023-03-02T05:47:28.334Z,28.80
2023-03-02T05:50:00.145Z,26.50
2023-03-02T05:52:48.339Z,30.50
2023-03-02T05:55:20.513Z,29.10
2023-03-02T05:57:52.234Z,27.00
2023-03-02T06:00:42.530Z,25.20
2023-03-02T06:03:14.456Z,26.10
2023-03-02T06:06:01.945Z,29.80
2023-03-02T06:08:57.438Z,26.60
2023-03-02T06:15:30.127Z,28.80
2023-03-02T06:18:29.600Z,28.90
2023-03-02T06:28:20.859Z,25.80
2023-03-02T06:31:18.553Z,26.90
2023-03-02T06:33:51.031Z,28.60
2023-03-02T06:36:22.178Z,26.10
2023-03-02T06:38:53.420Z,27.30
2023-03-02T06:41:25.838Z,28.60
2023-03-02T06:43:57.122Z,30.70
2023-03-02T06:46:28.326Z,32.60
2023-03-02T06:48:59.789Z,29.30
2023-03-02T06:51:31.663Z,31.20
2023-03-02T06:54:02.958Z,29.40
2023-03-02T06:56:41.085Z,31.90
2023-03-02T06:59:26.499Z,37.50
2023-03-02T07:02:12.156Z,30.00
2023-03-02T07:04:43.238Z,32.20
2023-03-02T07:07:14.272Z,32.40
2023-03-02T07:09:45.149Z,33.70
2023-03-02T07:12:37.764Z,33.30
2023-03-02T07:15:12.502Z,36.50
2023-03-02T07:17:45.384Z,33.20
2023-03-02T07:20:18.363Z,34.40
2023-03-02T07:22:49.843Z,34.40
2023-03-02T07:25:20.553Z,33.60
2023-03-02T07:27:51.594Z,35.00
2023-03-02T07:30:22.873Z,33.40
2023-03-02T07:32:54.069Z,33.70
2023-03-02T07:35:24.931Z,35.70
2023-03-02T07:37:55.812Z,33.30
2023-03-02T07:40:26.903Z,33.80
2023-03-02T07:42:58.050Z,31.80
2023-03-02T07:45:28.959Z,34.30
2023-03-02T07:47:59.819Z,35.40
2023-03-02T07:50:32.553Z,31.10
2023-03-02T07:53:03.123Z,34.20
2023-03-02T07:55:45.135Z,37.00
2023-03-02T08:02:37.663Z,35.30
2023-03-02T09:10:55.249Z,36.50
2023-03-02T09:21:36.641Z,31.60
2023-03-02T09:25:02.126Z,34.10
2023-03-02T09:31:59.512Z,34.50
2023-03-02T09:35:25.116Z,33.80
2023-03-02T09:39:03.250Z,31.90
2023-03-02T10:14:02.746Z,31.80
2023-03-02T10:16:48.373Z,31.90
2023-03-02T10:19:41.759Z,32.00
2023-03-02T10:22:48.028Z,31.50
2023-03-02T10:25:43.332Z,33.30
2023-03-02T10:28:22.259Z,30.90
2023-03-02T10:31:07.030Z,30.30
2023-03-02T10:33:40.022Z,34.50
2023-03-02T10:36:31.618Z,32.50
2023-03-02T10:39:06.802Z,33.20
2023-03-02T10:41:48.970Z,30.20
2023-03-02T10:44:25.044Z,31.60
2023-03-02T10:47:26.951Z,34.10
2023-03-02T10:49:57.790Z,31.90
2023-03-02T10:52:28.599Z,34.80
2023-03-02T10:55:12.556Z,30.20
2023-03-02T10:57:44.714Z,33.00
2023-03-02T11:00:21.384Z,32.90
2023-03-02T11:02:57.687Z,32.10
2023-03-02T11:05:43.807Z,32.50
2023-03-02T11:08:21.626Z,32.40
2023-03-02T11:11:04.822Z,33.40
2023-03-02T11:13:38.916Z,31.40
2023-03-02T11:16:30.462Z,34.40
2023-03-02T11:19:08.149Z,30.00
2023-03-02T11:22:07.513Z,33.50
2023-03-02T11:24:47.939Z,29.30
2023-03-02T11:27:25.961Z,32.50
2023-03-02T11:30:11.912Z,34.30
2023-03-02T11:33:00.145Z,34.70
2023-03-02T11:35:32.240Z,31.60
2023-03-02T11:38:31.979Z,31.30
2023-03-02T11:41:14.313Z,31.10
2023-03-02T11:43:44.062Z,33.70
2023-03-02T11:46:30.041Z,34.90
2023-03-02T11:49:18.821Z,36.30
2023-03-02T11:51:58.839Z,36.00
2023-03-02T11:54:51.572Z,31.60
2023-03-02T11:57:33.086Z,33.60
2023-03-02T12:00:31.973Z,31.40
2023-03-02T12:03:21.648Z,32.90
2023-03-02T12:06:05.195Z,32.10
2023-03-02T12:08:42.214Z,31.70
2023-03-02T12:11:23.089Z,32.20
2023-03-02T12:14:02.158Z,32.30
2023-03-02T12:16:42.645Z,30.90
2023-03-02T12:19:32.082Z,32.40
2023-03-02T12:22:09.381Z,30.90
2023-03-02T12:24:42.311Z,32.80
2023-03-02T12:27:24.963Z,32.10
2023-03-02T12:30:24.042Z,32.90
2023-03-02T12:33:22.172Z,31.90
2023-03-02T12:38:38.531Z,32.70
2023-03-02T12:41:49.561Z,34.00
2023-03-02T12:45:01.371Z,33.10
2023-03-02T12:47:33.185Z,33.80
2023-03-02T12:50:15.661Z,35.70
2023-03-02T12:53:06.897Z,35.70
2023-03-02T12:55:38.074Z,34.30
2023-03-02T12:58:18.314Z,31.90
2023-03-02T13:00:57.850Z,32.50
2023-03-02T13:03:29.790Z,34.30
2023-03-02T13:06:18.304Z,36.60
2023-03-02T13:08:54.355Z,35.80
2023-03-02T13:11:35.710Z,33.10
2023-03-02T13:14:36.075Z,32.00
2023-03-02T13:17:05.930Z,34.10
2023-03-02T13:19:37.489Z,32.10
2023-03-02T13:22:15.441Z,32.60
2023-03-02T13:25:05.614Z,29.70
2023-03-02T13:27:35.547Z,31.10
2023-03-02T13:30:37.728Z,30.40
